sensor_id;sensor_type;location;lat;lon;timestamp;pressure;altitude;pressure_sealevel;temperature;humidity
37824;BME280;23667;43.246;26.576;2022-09-30T00:02:09;99035.66;;;15.35;100.00
37824;BME280;23667;43.246;26.576;2022-09-30T00:04:36;99027.78;;;15.51;100.00
37824;BME280;23667;43.246;26.576;2022-09-30T00:07:02;99023.72;;;15.29;100.00
37824;BME280;23667;43.246;26.576;2022-09-30T00:09:27;99036.34;;;15.22;100.00
37824;BME280;23667;43.246;26.576;2022-09-30T00:11:53;99045.81;;;15.41;100.00
37824;BME280;23667;43.246;26.576;2022-09-30T00:14:21;99042.47;;;15.39;100.00
37824;BME280;23667;43.246;26.576;2022-09-30T00:16:47;99039.81;;;15.39;100.00
37824;BME280;23667;43.246;26.576;2022-09-30T00:19:14;99047.31;;;15.15;100.00
37824;BME280;23667;43.246;26.576;2022-09-30T00:21:39;99039.78;;;15.09;100.00
37824;BME280;23667;43.246;26.576;2022-09-30T00:24:05;99044.66;;;14.99;100.00
37824;BME280;23667;43.246;26.576;2022-09-30T00:26:31;99046.94;;;15.05;100.00
37824;BME280;23667;43.246;26.576;2022-09-30T00:28:59;99051.81;;;14.97;100.00
37824;BME280;23667;43.246;26.576;2022-09-30T00:31:28;99054.50;;;15.11;100.00
37824;BME280;23667;43.246;26.576;2022-09-30T00:33:54;99062.63;;;15.07;100.00
37824;BME280;23667;43.246;26.576;2022-09-30T00:36:41;99050.09;;;14.96;100.00
37824;BME280;23667;43.246;26.576;2022-09-30T00:39:10;99061.09;;;14.87;100.00
37824;BME280;23667;43.246;26.576;2022-09-30T00:41:36;99053.13;;;14.72;100.00
37824;BME280;23667;43.246;26.576;2022-09-30T00:47:43;99057.69;;;14.69;100.00
37824;BME280;23667;43.246;26.576;2022-09-30T00:52:53;99068.19;;;14.69;100.00
37824;BME280;23667;43.246;26.576;2022-09-30T00:57:56;99059.91;;;14.76;100.00
37824;BME280;23667;43.246;26.576;2022-09-30T01:00:22;99057.69;;;14.85;100.00
37824;BME280;23667;43.246;26.576;2022-09-30T01:02:48;99051.34;;;14.73;100.00
37824;BME280;23667;43.246;26.576;2022-09-30T01:05:14;99041.75;;;14.56;100.00
37824;BME280;23667;43.246;26.576;2022-09-30T01:07:39;99046.59;;;14.64;100.00
37824;BME280;23667;43.246;26.576;2022-09-30T01:10:05;99055.06;;;14.69;100.00
37824;BME280;23667;43.246;26.576;2022-09-30T01:12:31;99064.94;;;14.64;100.00
37824;BME280;23667;43.246;26.576;2022-09-30T01:14:57;99066.84;;;14.62;100.00
37824;BME280;23667;43.246;26.576;2022-09-30T01:20:30;99063.97;;;14.49;100.00
37824;BME280;23667;43.246;26.576;2022-09-30T01:26:30;99069.03;;;14.69;100.00
37824;BME280;23667;43.246;26.576;2022-09-30T01:35:06;99082.41;;;14.14;100.00
37824;BME280;23667;43.246;26.576;2022-09-30T01:40:41;99095.19;;;14.20;100.00
37824;BME280;23667;43.246;26.576;2022-09-30T01:48:39;99100.25;;;13.71;100.00
37824;BME280;23667;43.246;26.576;2022-09-30T01:51:09;99105.59;;;13.70;100.00
37824;BME280;23667;43.246;26.576;2022-09-30T01:53:49;99107.19;;;13.55;100.00
37824;BME280;23667;43.246;26.576;2022-09-30T01:56:28;99111.53;;;13.73;100.00
37824;BME280;23667;43.246;26.576;2022-09-30T02:01:41;99114.22;;;13.89;100.00
37824;BME280;23667;43.246;26.576;2022-09-30T02:04:22;99122.72;;;13.94;100.00
37824;BME280;23667;43.246;26.576;2022-09-30T02:06:52;99126.81;;;14.00;100.00
37824;BME280;23667;43.246;26.576;2022-09-30T02:09:24;99132.78;;;13.67;100.00
37824;BME280;23667;43.246;26.576;2022-09-30T02:11:53;99123.22;;;13.83;100.00
37824;BME280;23667;43.246;26.576;2022-09-30T02:14:39;99132.06;;;14.00;100.00
37824;BME280;23667;43.246;26.576;2022-09-30T02:17:10;99133.09;;;13.96;100.00
37824;BME280;23667;43.246;26.576;2022-09-30T02:20:05;99120.91;;;13.77;100.00
37824;BME280;23667;43.246;26.576;2022-09-30T02:22:42;99118.31;;;13.95;100.00
37824;BME280;23667;43.246;26.576;2022-09-30T02:25:25;99124.69;;;13.72;100.00
37824;BME280;23667;43.246;26.576;2022-09-30T02:28:04;99135.09;;;13.73;100.00
37824;BME280;23667;43.246;26.576;2022-09-30T02:30:37;99128.75;;;13.60;100.00
37824;BME280;23667;43.246;26.576;2022-09-30T02:33:31;99134.81;;;13.60;100.00
37824;BME280;23667;43.246;26.576;2022-09-30T02:36:04;99137.03;;;13.70;100.00
37824;BME280;23667;43.246;26.576;2022-09-30T02:38:37;99136.59;;;13.60;100.00
37824;BME280;23667;43.246;26.576;2022-09-30T02:41:11;99143.34;;;13.47;100.00
37824;BME280;23667;43.246;26.576;2022-09-30T02:43:39;99148.31;;;13.53;100.00
37824;BME280;23667;43.246;26.576;2022-09-30T02:46:32;99157.31;;;13.28;100.00
37824;BME280;23667;43.246;26.576;2022-09-30T02:49:25;99154.31;;;13.17;100.00
37824;BME280;23667;43.246;26.576;2022-09-30T02:59:51;99164.78;;;13.17;100.00
37824;BME280;23667;43.246;26.576;2022-09-30T03:02:17;99166.38;;;13.40;100.00
37824;BME280;23667;43.246;26.576;2022-09-30T03:04:45;99168.56;;;13.49;100.00
37824;BME280;23667;43.246;26.576;2022-09-30T03:07:12;99169.63;;;13.26;100.00
37824;BME280;23667;43.246;26.576;2022-09-30T03:09:39;99163.56;;;13.24;100.00
37824;BME280;23667;43.246;26.576;2022-09-30T03:21:07;99157.75;;;13.38;100.00
37824;BME280;23667;43.246;26.576;2022-09-30T03:34:31;99166.56;;;13.16;100.00
37824;BME280;23667;43.246;26.576;2022-09-30T03:42:24;99163.91;;;12.97;100.00
37824;BME280;23667;43.246;26.576;2022-09-30T03:47:59;99155.31;;;13.33;100.00
37824;BME280;23667;43.246;26.576;2022-09-30T03:50:26;99155.97;;;13.38;100.00
37824;BME280;23667;43.246;26.576;2022-09-30T03:52:52;99146.03;;;13.45;100.00
37824;BME280;23667;43.246;26.576;2022-09-30T03:55:18;99154.13;;;13.40;100.00
37824;BME280;23667;43.246;26.576;2022-09-30T03:57:46;99152.41;;;13.39;100.00
37824;BME280;23667;43.246;26.576;2022-09-30T04:00:13;99156.63;;;13.04;100.00
37824;BME280;23667;43.246;26.576;2022-09-30T04:02:40;99156.78;;;13.20;100.00
37824;BME280;23667;43.246;26.576;2022-09-30T04:05:06;99159.00;;;13.29;100.00
37824;BME280;23667;43.246;26.576;2022-09-30T04:07:33;99163.41;;;13.29;100.00
37824;BME280;23667;43.246;26.576;2022-09-30T04:09:58;99158.69;;;13.16;100.00
37824;BME280;23667;43.246;26.576;2022-09-30T04:12:24;99159.22;;;13.04;100.00
37824;BME280;23667;43.246;26.576;2022-09-30T04:14:50;99165.22;;;13.08;100.00
37824;BME280;23667;43.246;26.576;2022-09-30T04:17:16;99170.13;;;13.34;100.00
37824;BME280;23667;43.246;26.576;2022-09-30T04:19:42;99166.72;;;13.32;100.00
37824;BME280;23667;43.246;26.576;2022-09-30T04:22:07;99167.31;;;13.18;100.00
37824;BME280;23667;43.246;26.576;2022-09-30T04:24:33;99167.53;;;13.14;100.00
37824;BME280;23667;43.246;26.576;2022-09-30T04:26:59;99162.72;;;13.05;100.00
37824;BME280;23667;43.246;26.576;2022-09-30T04:29:25;99163.16;;;13.14;100.00
37824;BME280;23667;43.246;26.576;2022-09-30T04:31:51;99171.94;;;13.13;100.00
37824;BME280;23667;43.246;26.576;2022-09-30T04:34:16;99179.47;;;13.01;100.00
37824;BME280;23667;43.246;26.576;2022-09-30T04:36:42;99175.03;;;13.21;100.00
37824;BME280;23667;43.246;26.576;2022-09-30T04:39:07;99175.38;;;13.34;100.00
37824;BME280;23667;43.246;26.576;2022-09-30T04:41:33;99176.03;;;13.57;100.00
37824;BME280;23667;43.246;26.576;2022-09-30T04:43:59;99178.28;;;13.28;100.00
37824;BME280;23667;43.246;26.576;2022-09-30T04:46:30;99178.31;;;13.27;100.00
37824;BME280;23667;43.246;26.576;2022-09-30T04:48:55;99177.34;;;13.29;100.00
37824;BME280;23667;43.246;26.576;2022-09-30T04:51:21;99169.75;;;13.42;100.00
37824;BME280;23667;43.246;26.576;2022-09-30T04:53:47;99177.75;;;13.58;100.00
37824;BME280;23667;43.246;26.576;2022-09-30T04:56:13;99172.38;;;13.61;100.00
37824;BME280;23667;43.246;26.576;2022-09-30T04:58:41;99190.00;;;13.57;100.00
37824;BME280;23667;43.246;26.576;2022-09-30T05:01:09;99195.13;;;13.97;100.00
37824;BME280;23667;43.246;26.576;2022-09-30T05:03:35;99200.94;;;15.23;100.00
37824;BME280;23667;43.246;26.576;2022-09-30T05:06:01;99179.66;;;16.37;100.00
37824;BME280;23667;43.246;26.576;2022-09-30T05:08:27;99160.78;;;16.45;100.00
37824;BME280;23667;43.246;26.576;2022-09-30T05:10:55;99147.78;;;16.28;100.00
37824;BME280;23667;43.246;26.576;2022-09-30T05:13:25;99154.53;;;16.02;100.00
37824;BME280;23667;43.246;26.576;2022-09-30T05:15:54;99162.47;;;15.86;100.00
37824;BME280;23667;43.246;26.576;2022-09-30T05:18:19;99164.59;;;15.95;100.00
37824;BME280;23667;43.246;26.576;2022-09-30T05:20:48;99156.81;;;16.08;100.00
37824;BME280;23667;43.246;26.576;2022-09-30T05:23:14;99167.22;;;16.70;100.00
37824;BME280;23667;43.246;26.576;2022-09-30T05:25:41;99165.75;;;17.23;100.00
37824;BME280;23667;43.246;26.576;2022-09-30T05:28:06;99161.16;;;17.54;100.00
37824;BME280;23667;43.246;26.576;2022-09-30T05:30:32;99160.28;;;17.67;100.00
37824;BME280;23667;43.246;26.576;2022-09-30T05:32:58;99171.56;;;18.11;100.00
37824;BME280;23667;43.246;26.576;2022-09-30T05:35:23;99171.91;;;18.19;100.00
37824;BME280;23667;43.246;26.576;2022-09-30T05:37:49;99177.00;;;18.35;100.00
37824;BME280;23667;43.246;26.576;2022-09-30T05:40:15;99178.31;;;18.55;100.00
37824;BME280;23667;43.246;26.576;2022-09-30T05:42:40;99175.25;;;18.61;100.00
37824;BME280;23667;43.246;26.576;2022-09-30T05:45:06;99174.28;;;18.49;100.00
37824;BME280;23667;43.246;26.576;2022-09-30T05:47:33;99167.00;;;18.53;100.00
37824;BME280;23667;43.246;26.576;2022-09-30T05:49:58;99167.75;;;18.55;100.00
37824;BME280;23667;43.246;26.576;2022-09-30T05:52:24;99169.94;;;18.48;100.00
37824;BME280;23667;43.246;26.576;2022-09-30T05:54:50;99177.47;;;18.67;100.00
37824;BME280;23667;43.246;26.576;2022-09-30T05:57:16;99182.78;;;18.80;100.00
37824;BME280;23667;43.246;26.576;2022-09-30T05:59:42;99186.03;;;18.83;100.00
37824;BME280;23667;43.246;26.576;2022-09-30T06:02:11;99203.16;;;19.16;100.00
37824;BME280;23667;43.246;26.576;2022-09-30T06:04:36;99196.03;;;19.42;100.00
37824;BME280;23667;43.246;26.576;2022-09-30T06:07:01;99192.91;;;19.74;100.00
37824;BME280;23667;43.246;26.576;2022-09-30T06:09:27;99186.19;;;19.94;100.00
37824;BME280;23667;43.246;26.576;2022-09-30T06:11:52;99189.63;;;20.42;100.00
37824;BME280;23667;43.246;26.576;2022-09-30T06:14:20;99189.13;;;20.84;100.00
37824;BME280;23667;43.246;26.576;2022-09-30T06:16:47;99182.66;;;21.99;100.00
37824;BME280;23667;43.246;26.576;2022-09-30T06:19:12;99179.84;;;22.65;100.00
37824;BME280;23667;43.246;26.576;2022-09-30T06:21:38;99184.03;;;23.09;100.00
37824;BME280;23667;43.246;26.576;2022-09-30T06:24:04;99174.97;;;23.62;100.00
37824;BME280;23667;43.246;26.576;2022-09-30T06:26:29;99175.78;;;22.40;100.00
37824;BME280;23667;43.246;26.576;2022-09-30T06:28:55;99182.50;;;22.44;100.00
37824;BME280;23667;43.246;26.576;2022-09-30T06:31:20;99189.09;;;23.43;100.00
37824;BME280;23667;43.246;26.576;2022-09-30T06:33:46;99184.06;;;24.58;100.00
37824;BME280;23667;43.246;26.576;2022-09-30T06:36:11;99190.91;;;24.70;100.00
37824;BME280;23667;43.246;26.576;2022-09-30T06:38:37;99196.25;;;24.32;100.00
37824;BME280;23667;43.246;26.576;2022-09-30T06:41:04;99201.19;;;25.77;100.00
37824;BME280;23667;43.246;26.576;2022-09-30T06:43:30;99201.81;;;24.96;100.00
37824;BME280;23667;43.246;26.576;2022-09-30T06:45:56;99203.13;;;25.85;100.00
37824;BME280;23667;43.246;26.576;2022-09-30T06:48:21;99203.53;;;27.14;100.00
37824;BME280;23667;43.246;26.576;2022-09-30T06:50:47;99205.75;;;26.66;100.00
37824;BME280;23667;43.246;26.576;2022-09-30T06:53:13;99205.19;;;25.63;100.00
37824;BME280;23667;43.246;26.576;2022-09-30T06:55:39;99207.03;;;24.88;100.00
37824;BME280;23667;43.246;26.576;2022-09-30T06:58:08;99211.59;;;25.06;100.00
37824;BME280;23667;43.246;26.576;2022-09-30T07:00:37;99214.06;;;25.92;100.00
37824;BME280;23667;43.246;26.576;2022-09-30T07:03:04;99212.75;;;26.67;100.00
37824;BME280;23667;43.246;26.576;2022-09-30T07:05:39;99217.06;;;27.38;100.00
37824;BME280;23667;43.246;26.576;2022-09-30T07:08:05;99211.63;;;26.34;100.00
37824;BME280;23667;43.246;26.576;2022-09-30T07:10:34;99219.34;;;26.55;100.00
37824;BME280;23667;43.246;26.576;2022-09-30T07:13:00;99214.25;;;26.88;99.65
37824;BME280;23667;43.246;26.576;2022-09-30T07:15:26;99207.75;;;27.85;95.68
37824;BME280;23667;43.246;26.576;2022-09-30T07:17:52;99203.06;;;27.53;95.07
37824;BME280;23667;43.246;26.576;2022-09-30T07:20:19;99199.59;;;27.00;99.04
37824;BME280;23667;43.246;26.576;2022-09-30T07:22:44;99198.41;;;28.05;92.22
37824;BME280;23667;43.246;26.576;2022-09-30T07:25:10;99193.97;;;27.37;97.21
37824;BME280;23667;43.246;26.576;2022-09-30T07:27:36;99187.66;;;29.59;85.40
37824;BME280;23667;43.246;26.576;2022-09-30T07:30:02;99193.78;;;29.37;80.12
37824;BME280;23667;43.246;26.576;2022-09-30T07:32:30;99193.56;;;29.86;81.71
37824;BME280;23667;43.246;26.576;2022-09-30T07:34:56;99199.53;;;30.50;78.54
37824;BME280;23667;43.246;26.576;2022-09-30T07:37:23;99218.22;;;32.15;72.05
37824;BME280;23667;43.246;26.576;2022-09-30T07:39:49;99216.97;;;32.54;68.08
37824;BME280;23667;43.246;26.576;2022-09-30T07:42:16;99219.72;;;32.60;67.16
37824;BME280;23667;43.246;26.576;2022-09-30T07:44:44;99221.22;;;32.27;67.82
37824;BME280;23667;43.246;26.576;2022-09-30T07:47:11;99230.78;;;31.27;67.80
37824;BME280;23667;43.246;26.576;2022-09-30T07:49:39;99223.47;;;32.88;64.02
37824;BME280;23667;43.246;26.576;2022-09-30T07:52:05;99227.38;;;32.57;64.46
37824;BME280;23667;43.246;26.576;2022-09-30T07:54:32;99232.34;;;31.07;68.23
37824;BME280;23667;43.246;26.576;2022-09-30T07:56:59;99215.53;;;31.64;65.82
37824;BME280;23667;43.246;26.576;2022-09-30T07:59:28;99221.25;;;31.39;64.24
37824;BME280;23667;43.246;26.576;2022-09-30T08:01:54;99226.34;;;30.12;68.79
37824;BME280;23667;43.246;26.576;2022-09-30T08:04:22;99231.56;;;29.35;72.30
37824;BME280;23667;43.246;26.576;2022-09-30T08:06:51;99229.19;;;30.42;70.17
37824;BME280;23667;43.246;26.576;2022-09-30T08:09:18;99225.03;;;31.60;66.16
37824;BME280;23667;43.246;26.576;2022-09-30T08:11:45;99231.69;;;31.79;64.46
37824;BME280;23667;43.246;26.576;2022-09-30T08:14:16;99232.69;;;32.29;65.15
37824;BME280;23667;43.246;26.576;2022-09-30T08:16:42;99231.00;;;32.71;63.02
37824;BME280;23667;43.246;26.576;2022-09-30T08:19:16;99236.91;;;33.02;62.30
37824;BME280;23667;43.246;26.576;2022-09-30T08:21:43;99241.38;;;33.17;61.05
37824;BME280;23667;43.246;26.576;2022-09-30T08:24:09;99239.06;;;33.48;60.33
37824;BME280;23667;43.246;26.576;2022-09-30T08:26:34;99240.66;;;33.78;59.52
37824;BME280;23667;43.246;26.576;2022-09-30T08:29:00;99241.75;;;33.14;59.07
37824;BME280;23667;43.246;26.576;2022-09-30T08:31:26;99248.16;;;34.43;57.80
37824;BME280;23667;43.246;26.576;2022-09-30T08:33:52;99244.59;;;34.30;57.46
37824;BME280;23667;43.246;26.576;2022-09-30T08:36:20;99249.88;;;34.91;55.45
37824;BME280;23667;43.246;26.576;2022-09-30T08:38:47;99253.81;;;34.69;52.27
37824;BME280;23667;43.246;26.576;2022-09-30T08:41:41;99254.56;;;35.49;51.23
37824;BME280;23667;43.246;26.576;2022-09-30T08:52:44;99241.69;;;37.71;47.56
37824;BME280;23667;43.246;26.576;2022-09-30T08:55:22;99242.59;;;37.28;47.25
37824;BME280;23667;43.246;26.576;2022-09-30T08:57:49;99238.31;;;36.71;46.77
37824;BME280;23667;43.246;26.576;2022-09-30T09:00:17;99244.66;;;37.70;46.13
37824;BME280;23667;43.246;26.576;2022-09-30T09:02:52;99240.91;;;35.89;46.33
37824;BME280;23667;43.246;26.576;2022-09-30T09:05:43;99234.22;;;34.86;48.98
37824;BME280;23667;43.246;26.576;2022-09-30T09:24:05;99243.25;;;35.72;47.87
37824;BME280;23667;43.246;26.576;2022-09-30T09:26:37;99234.56;;;35.43;48.17
37824;BME280;23667;43.246;26.576;2022-09-30T09:31:53;99248.41;;;34.75;47.51
37824;BME280;23667;43.246;26.576;2022-09-30T09:34:19;99232.94;;;32.34;51.71
37824;BME280;23667;43.246;26.576;2022-09-30T09:42:28;99241.81;;;30.10;59.00
37824;BME280;23667;43.246;26.576;2022-09-30T09:47:21;99232.84;;;30.26;58.83
37824;BME280;23667;43.246;26.576;2022-09-30T09:49:54;99233.22;;;31.52;56.23
37824;BME280;23667;43.246;26.576;2022-09-30T09:52:33;99226.34;;;32.58;53.83
37824;BME280;23667;43.246;26.576;2022-09-30T09:55:02;99229.66;;;31.81;54.69
37824;BME280;23667;43.246;26.576;2022-09-30T09:57:28;99229.84;;;33.01;53.39
37824;BME280;23667;43.246;26.576;2022-09-30T10:03:04;99228.13;;;33.63;52.32
37824;BME280;23667;43.246;26.576;2022-09-30T10:05:36;99224.69;;;31.48;52.23
37824;BME280;23667;43.246;26.576;2022-09-30T10:08:16;99223.81;;;31.03;54.52
37824;BME280;23667;43.246;26.576;2022-09-30T10:10:54;99229.13;;;30.50;56.88
37824;BME280;23667;43.246;26.576;2022-09-30T10:13:29;99228.28;;;29.56;59.84
37824;BME280;23667;43.246;26.576;2022-09-30T10:16:00;99227.13;;;28.78;60.81
37824;BME280;23667;43.246;26.576;2022-09-30T10:18:29;99219.22;;;28.28;62.36
37824;BME280;23667;43.246;26.576;2022-09-30T10:21:20;99222.59;;;27.11;65.74
37824;BME280;23667;43.246;26.576;2022-09-30T10:23:46;99220.34;;;27.24;70.39
37824;BME280;23667;43.246;26.576;2022-09-30T10:26:20;99222.09;;;27.41;69.09
37824;BME280;23667;43.246;26.576;2022-09-30T10:28:47;99213.56;;;27.38;70.14
37824;BME280;23667;43.246;26.576;2022-09-30T10:31:23;99205.59;;;27.54;69.50
37824;BME280;23667;43.246;26.576;2022-09-30T10:33:56;99216.31;;;27.54;72.54
37824;BME280;23667;43.246;26.576;2022-09-30T10:36:30;99204.13;;;27.68;74.73
37824;BME280;23667;43.246;26.576;2022-09-30T10:39:00;99199.81;;;27.75;75.52
37824;BME280;23667;43.246;26.576;2022-09-30T10:41:28;99200.47;;;27.77;74.08
37824;BME280;23667;43.246;26.576;2022-09-30T10:43:57;99197.47;;;27.72;71.57
37824;BME280;23667;43.246;26.576;2022-09-30T10:46:33;99198.78;;;27.68;72.49
37824;BME280;23667;43.246;26.576;2022-09-30T10:49:07;99201.84;;;27.39;74.85
37824;BME280;23667;43.246;26.576;2022-09-30T10:51:34;99203.03;;;27.10;74.54
37824;BME280;23667;43.246;26.576;2022-09-30T10:54:01;99195.41;;;26.97;75.98
37824;BME280;23667;43.246;26.576;2022-09-30T10:56:32;99193.28;;;27.01;73.07
37824;BME280;23667;43.246;26.576;2022-09-30T10:58:59;99193.75;;;27.22;73.89
37824;BME280;23667;43.246;26.576;2022-09-30T11:02:50;99196.28;;;27.32;72.84
37824;BME280;23667;43.246;26.576;2022-09-30T11:07:30;99204.50;;;27.05;73.16
37824;BME280;23667;43.246;26.576;2022-09-30T11:12:48;99203.16;;;27.00;72.96
37824;BME280;23667;43.246;26.576;2022-09-30T11:15:21;99202.13;;;27.02;71.53
37824;BME280;23667;43.246;26.576;2022-09-30T11:18:16;99201.66;;;27.06;71.86
37824;BME280;23667;43.246;26.576;2022-09-30T11:20:58;99204.63;;;27.03;76.85
37824;BME280;23667;43.246;26.576;2022-09-30T11:29:04;99202.16;;;27.36;72.66
37824;BME280;23667;43.246;26.576;2022-09-30T11:38:00;99198.25;;;27.22;70.73
37824;BME280;23667;43.246;26.576;2022-09-30T11:41:03;99206.56;;;27.45;70.79
37824;BME280;23667;43.246;26.576;2022-09-30T11:57:15;99209.50;;;27.68;70.34
37824;BME280;23667;43.246;26.576;2022-09-30T12:04:58;99212.91;;;27.44;69.64
37824;BME280;23667;43.246;26.576;2022-09-30T12:07:41;99210.28;;;27.52;68.49
37824;BME280;23667;43.246;26.576;2022-09-30T12:10:28;99217.31;;;27.53;68.09
37824;BME280;23667;43.246;26.576;2022-09-30T12:13:02;99213.31;;;27.57;68.30
37824;BME280;23667;43.246;26.576;2022-09-30T12:15:29;99208.09;;;27.56;68.40
37824;BME280;23667;43.246;26.576;2022-09-30T12:18:04;99208.47;;;27.61;66.96
37824;BME280;23667;43.246;26.576;2022-09-30T12:20:55;99217.44;;;27.43;67.60
37824;BME280;23667;43.246;26.576;2022-09-30T12:23:29;99216.50;;;27.18;66.68
37824;BME280;23667;43.246;26.576;2022-09-30T12:25:57;99215.19;;;27.05;65.74
37824;BME280;23667;43.246;26.576;2022-09-30T12:34:19;99233.69;;;27.16;69.19
37824;BME280;23667;43.246;26.576;2022-09-30T12:42:42;99225.06;;;27.04;75.22
37824;BME280;23667;43.246;26.576;2022-09-30T12:47:59;99218.44;;;27.42;68.40
37824;BME280;23667;43.246;26.576;2022-09-30T12:50:39;99220.31;;;27.50;68.21
37824;BME280;23667;43.246;26.576;2022-09-30T12:53:14;99223.31;;;27.47;66.81
37824;BME280;23667;43.246;26.576;2022-09-30T12:55:42;99219.00;;;27.62;66.85
37824;BME280;23667;43.246;26.576;2022-09-30T12:58:26;99212.84;;;27.70;66.58
37824;BME280;23667;43.246;26.576;2022-09-30T13:01:02;99213.53;;;27.72;68.96
37824;BME280;23667;43.246;26.576;2022-09-30T13:03:43;99222.31;;;27.48;68.37
37824;BME280;23667;43.246;26.576;2022-09-30T13:06:08;99217.75;;;27.40;65.03
37824;BME280;23667;43.246;26.576;2022-09-30T13:09:27;99222.47;;;27.47;65.56
37824;BME280;23667;43.246;26.576;2022-09-30T13:11:37;99224.50;;;27.53;66.88
37824;BME280;23667;43.246;26.576;2022-09-30T13:17:22;99232.25;;;27.64;67.33
37824;BME280;23667;43.246;26.576;2022-09-30T13:19:49;99218.53;;;27.67;68.54
37824;BME280;23667;43.246;26.576;2022-09-30T13:30:39;99224.38;;;27.62;65.57
37824;BME280;23667;43.246;26.576;2022-09-30T13:35:50;99231.25;;;27.65;64.51
37824;BME280;23667;43.246;26.576;2022-09-30T13:38:18;99238.09;;;27.59;67.57
37824;BME280;23667;43.246;26.576;2022-09-30T13:40:47;99239.22;;;27.49;64.00
37824;BME280;23667;43.246;26.576;2022-09-30T13:43:24;99238.41;;;27.48;62.32
37824;BME280;23667;43.246;26.576;2022-09-30T13:45:52;99257.16;;;27.56;63.38
37824;BME280;23667;43.246;26.576;2022-09-30T13:48:41;99242.31;;;27.70;63.75
37824;BME280;23667;43.246;26.576;2022-09-30T13:51:14;99249.88;;;27.75;66.87
37824;BME280;23667;43.246;26.576;2022-09-30T13:53:47;99240.13;;;27.65;67.03
37824;BME280;23667;43.246;26.576;2022-09-30T13:56:24;99247.41;;;27.47;66.53
37824;BME280;23667;43.246;26.576;2022-09-30T14:07:28;99254.66;;;27.55;61.69
37824;BME280;23667;43.246;26.576;2022-09-30T14:10:36;99251.88;;;27.30;60.87
37824;BME280;23667;43.246;26.576;2022-09-30T14:13:17;99252.53;;;27.32;59.87
37824;BME280;23667;43.246;26.576;2022-09-30T14:21:49;99268.31;;;27.17;59.13
37824;BME280;23667;43.246;26.576;2022-09-30T14:24:28;99273.75;;;27.08;59.42
37824;BME280;23667;43.246;26.576;2022-09-30T14:32:58;99271.41;;;27.05;58.89
37824;BME280;23667;43.246;26.576;2022-09-30T14:35:28;99278.66;;;26.94;60.33
37824;BME280;23667;43.246;26.576;2022-09-30T14:40:38;99286.97;;;26.83;59.88
37824;BME280;23667;43.246;26.576;2022-09-30T14:43:07;99298.19;;;26.87;59.74
37824;BME280;23667;43.246;26.576;2022-09-30T14:45:43;99289.16;;;26.88;60.10
37824;BME280;23667;43.246;26.576;2022-09-30T14:48:15;99292.31;;;26.83;60.23
37824;BME280;23667;43.246;26.576;2022-09-30T14:50:49;99295.38;;;26.70;60.66
37824;BME280;23667;43.246;26.576;2022-09-30T14:53:27;99301.13;;;26.58;62.36
37824;BME280;23667;43.246;26.576;2022-09-30T14:55:54;99296.78;;;26.47;63.79
37824;BME280;23667;43.246;26.576;2022-09-30T15:03:23;99317.78;;;26.24;62.44
37824;BME280;23667;43.246;26.576;2022-09-30T15:05:49;99317.78;;;26.24;62.89
37824;BME280;23667;43.246;26.576;2022-09-30T15:08:17;99321.06;;;26.18;64.10
37824;BME280;23667;43.246;26.576;2022-09-30T15:10:48;99325.78;;;26.06;64.24
37824;BME280;23667;43.246;26.576;2022-09-30T15:13:17;99329.91;;;25.91;64.54
37824;BME280;23667;43.246;26.576;2022-09-30T15:15:43;99332.59;;;25.81;65.99
37824;BME280;23667;43.246;26.576;2022-09-30T15:18:32;99338.00;;;25.71;72.10
37824;BME280;23667;43.246;26.576;2022-09-30T15:21:03;99331.28;;;25.57;73.03
37824;BME280;23667;43.246;26.576;2022-09-30T15:23:31;99339.06;;;25.41;74.77
37824;BME280;23667;43.246;26.576;2022-09-30T15:25:58;99340.06;;;25.11;70.95
37824;BME280;23667;43.246;26.576;2022-09-30T15:28:24;99338.53;;;24.98;79.19
37824;BME280;23667;43.246;26.576;2022-09-30T15:30:51;99339.53;;;24.88;86.63
37824;BME280;23667;43.246;26.576;2022-09-30T15:33:20;99342.34;;;24.67;90.17
37824;BME280;23667;43.246;26.576;2022-09-30T15:35:50;99351.09;;;24.38;79.87
37824;BME280;23667;43.246;26.576;2022-09-30T15:38:22;99345.06;;;24.26;79.05
37824;BME280;23667;43.246;26.576;2022-09-30T15:40:57;99359.50;;;24.24;85.38
37824;BME280;23667;43.246;26.576;2022-09-30T15:45:57;99358.56;;;24.04;100.00
37824;BME280;23667;43.246;26.576;2022-09-30T15:48:39;99358.78;;;23.81;100.00
37824;BME280;23667;43.246;26.576;2022-09-30T15:51:30;99368.16;;;23.55;100.00
37824;BME280;23667;43.246;26.576;2022-09-30T15:53:58;99367.66;;;23.40;100.00
37824;BME280;23667;43.246;26.576;2022-09-30T15:56:36;99378.88;;;23.44;100.00
37824;BME280;23667;43.246;26.576;2022-09-30T15:59:12;99384.31;;;23.21;100.00
37824;BME280;23667;43.246;26.576;2022-09-30T16:01:46;99381.13;;;23.06;100.00
37824;BME280;23667;43.246;26.576;2022-09-30T16:06:55;99395.34;;;22.73;100.00
37824;BME280;23667;43.246;26.576;2022-09-30T16:09:30;99399.28;;;22.58;100.00
37824;BME280;23667;43.246;26.576;2022-09-30T16:14:27;99403.03;;;22.33;100.00
37824;BME280;23667;43.246;26.576;2022-09-30T16:16:56;99405.59;;;22.23;100.00
37824;BME280;23667;43.246;26.576;2022-09-30T16:19:23;99406.16;;;22.15;100.00
37824;BME280;23667;43.246;26.576;2022-09-30T16:21:51;99415.84;;;22.05;100.00
37824;BME280;23667;43.246;26.576;2022-09-30T16:26:58;99416.63;;;21.49;100.00
37824;BME280;23667;43.246;26.576;2022-09-30T16:29:25;99416.03;;;21.57;100.00
37824;BME280;23667;43.246;26.576;2022-09-30T16:31:53;99420.03;;;21.63;100.00
37824;BME280;23667;43.246;26.576;2022-09-30T16:34:27;99417.72;;;21.58;100.00